Time;durP1;ratioP1;P1;durP2;ratioP2;P2;SDS_P1;SDS_P2;PMS_P1;PMS_P2;Temp;Humidity;BMP_temperature;BMP_pressure;BME280_temperature;BME280_humidity;BME280_pressure;Samples;Min_cycle;Max_cycle;Signal;HPM_P1;HPM_P2
2023/10/17 00:00:28;;;;;;;5.20;3.55;;;;;;;;;;10416658;28;20048;-74
2023/10/17 00:05:29;;;;;;;10.70;3.92;;;;;;;;;;10415212;28;20021;-73
2023/10/17 00:10:35;;;;;;;6.55;3.00;;;;;;;;;;10416183;28;20625;-74
2023/10/17 00:15:38;;;;;;;6.80;3.15;;;;;;;;;;10416253;28;20327;-73
2023/10/17 00:20:39;;;;;;;6.43;3.30;;;;;;;;;;10415332;28;20092;-73
2023/10/17 00:25:42;;;;;;;9.02;3.40;;;;;;;;;;10415722;28;20032;-74
2023/10/17 00:30:42;;;;;;;6.22;2.88;;;;;;;;;;10416203;28;20018;-73
2023/10/17 00:35:45;;;;;;;7.95;2.70;;;;;;;;;;10415738;28;20441;-74
2023/10/17 00:40:51;;;;;;;12.27;3.42;;;;;;;;;;10423677;28;20298;-74
2023/10/17 00:45:52;;;;;;;11.55;3.25;;;;;;;;;;10423321;28;20041;-74
2023/10/17 00:50:56;;;;;;;8.53;2.77;;;;;;;;;;10423149;28;20063;-74
2023/10/17 00:55:57;;;;;;;8.45;3.78;;;;;;;;;;10423239;28;20036;-75
2023/10/17 01:01:16;;;;;;;3.85;2.88;;;;;;;;;;10422402;28;20338;-73
2023/10/17 01:06:34;;;;;;;9.38;3.30;;;;;;;;;;10422643;28;20177;-73
2023/10/17 01:11:38;;;;;;;5.53;3.08;;;;;;;;;;10422745;28;20017;-73
2023/10/17 01:16:39;;;;;;;9.90;3.30;;;;;;;;;;10424483;28;20021;-73
2023/10/17 01:21:41;;;;;;;6.35;3.63;;;;;;;;;;10421985;28;20302;-73
2023/10/17 01:26:47;;;;;;;8.50;3.35;;;;;;;;;;10421559;28;20017;-74
2023/10/17 01:31:49;;;;;;;8.93;3.25;;;;;;;;;;10419474;28;20263;-74
2023/10/17 01:36:49;;;;;;;5.30;3.28;;;;;;;;;;10421075;28;20032;-75
2023/10/17 01:41:50;;;;;;;11.32;5.35;;;;;;;;;;10420909;28;20161;-74
2023/10/17 01:46:51;;;;;;;5.60;3.55;;;;;;;;;;10419872;28;20214;-75
2023/10/17 01:51:52;;;;;;;9.45;3.80;;;;;;;;;;10419961;28;20093;-75
2023/10/17 01:56:52;;;;;;;6.45;3.60;;;;;;;;;;10421023;28;20026;-74
2023/10/17 02:01:57;;;;;;;7.55;3.47;;;;;;;;;;10420742;28;20021;-74
2023/10/17 02:06:58;;;;;;;7.95;3.60;;;;;;;;;;10420357;28;20044;-73
2023/10/17 02:12:00;;;;;;;6.93;3.65;;;;;;;;;;10420104;28;20032;-73
2023/10/17 02:17:00;;;;;;;5.85;3.45;;;;;;;;;;10420020;28;20093;-74
2023/10/17 02:22:01;;;;;;;9.23;3.78;;;;;;;;;;10419819;28;20108;-74
2023/10/17 02:27:01;;;;;;;6.80;4.22;;;;;;;;;;10418938;28;20316;-74
2023/10/17 02:32:02;;;;;;;5.22;3.70;;;;;;;;;;10433339;22;20084;-76
2023/10/17 02:37:04;;;;;;;8.13;3.40;;;;;;;;;;10328784;28;20716;-77
2023/10/17 02:42:08;;;;;;;8.95;4.28;;;;;;;;;;10358800;28;20026;-73
2023/10/17 02:47:12;;;;;;;7.22;3.97;;;;;;;;;;10359384;28;20026;-78
2023/10/17 02:52:17;;;;;;;14.07;3.83;;;;;;;;;;10363197;28;20471;-80
2023/10/17 02:57:18;;;;;;;8.07;4.03;;;;;;;;;;10342333;28;20112;-78
2023/10/17 03:02:30;;;;;;;13.88;4.18;;;;;;;;;;10357869;28;20024;-78
2023/10/17 03:07:30;;;;;;;4.78;3.72;;;;;;;;;;10345962;28;20106;-78
2023/10/17 03:12:40;;;;;;;12.70;5.70;;;;;;;;;;10360201;28;20396;-77
2023/10/17 03:17:40;;;;;;;13.82;5.05;;;;;;;;;;10362433;28;20017;-81
2023/10/17 03:22:42;;;;;;;6.33;4.40;;;;;;;;;;10366282;28;20504;-83
2023/10/17 03:27:48;;;;;;;9.10;4.72;;;;;;;;;;10365923;28;20057;-80
2023/10/17 03:38:02;;;;;;;6.75;4.35;;;;;;;;;;10370150;28;20113;-83
2023/10/17 03:43:11;;;;;;;11.27;4.55;;;;;;;;;;10345957;28;20499;-81
2023/10/17 03:48:14;;;;;;;10.70;5.22;;;;;;;;;;10361272;28;20021;-78
2023/10/17 03:53:15;;;;;;;9.60;5.63;;;;;;;;;;10362408;28;20014;-79
2023/10/17 04:03:24;;;;;;;19.40;5.80;;;;;;;;;;10360944;28;20030;-77
2023/10/17 04:08:31;;;;;;;10.05;5.30;;;;;;;;;;10361857;28;20022;-77
2023/10/17 04:13:34;;;;;;;10.07;4.75;;;;;;;;;;10358274;28;20030;-80
2023/10/17 04:18:37;;;;;;;9.00;5.00;;;;;;;;;;10360778;28;20484;-81
2023/10/17 04:23:38;;;;;;;8.73;5.43;;;;;;;;;;10355759;28;20025;-77
2023/10/17 04:28:41;;;;;;;6.25;4.20;;;;;;;;;;10357011;28;20018;-79
2023/10/17 04:33:41;;;;;;;8.85;4.32;;;;;;;;;;10356623;28;20507;-76
2023/10/17 04:38:46;;;;;;;10.35;4.85;;;;;;;;;;10356270;28;20029;-80
2023/10/17 04:43:56;;;;;;;6.95;4.72;;;;;;;;;;10355921;28;20088;-77
2023/10/17 04:49:06;;;;;;;13.23;5.85;;;;;;;;;;10357934;28;20460;-81
2023/10/17 06:19:21;;;;;;;13.40;4.20;;;;;;;;;;10326083;28;20101;-84
2023/10/17 06:34:42;;;;;;;15.43;4.13;;;;;;;;;;10364511;28;20054;-84
2023/10/17 06:39:46;;;;;;;6.47;2.85;;;;;;;;;;10363768;28;20022;-81
2023/10/17 06:55:21;;;;;;;5.40;3.08;;;;;;;;;;10370298;28;20030;-83
2023/10/17 07:05:26;;;;;;;6.70;2.85;;;;;;;;;;10363860;28;20018;-78
2023/10/17 07:15:32;;;;;;;5.47;3.30;;;;;;;;;;10363518;28;20026;-83
2023/10/17 07:25:56;;;;;;;5.80;2.67;;;;;;;;;;10362934;28;20034;-78
2023/10/17 07:30:57;;;;;;;4.88;2.28;;;;;;;;;;10362773;28;20085;-81
2023/10/17 07:35:58;;;;;;;4.88;3.08;;;;;;;;;;10362403;28;20093;-81
2023/10/17 07:40:58;;;;;;;2.73;2.00;;;;;;;;;;10363860;28;20171;-77
2023/10/17 07:46:06;;;;;;;8.13;2.78;;;;;;;;;;10365192;28;20125;-80
2023/10/17 07:51:06;;;;;;;7.63;2.07;;;;;;;;;;10366286;28;20018;-80
2023/10/17 07:56:13;;;;;;;2.58;1.92;;;;;;;;;;10374916;28;20109;-87
2023/10/17 08:01:18;;;;;;;6.00;2.03;;;;;;;;;;10364484;28;20026;-79
2023/10/17 08:06:23;;;;;;;9.05;2.30;;;;;;;;;;10364178;28;20117;-82
2023/10/17 08:11:27;;;;;;;6.43;2.20;;;;;;;;;;10361555;28;20579;-85
2023/10/17 08:16:32;;;;;;;4.95;1.92;;;;;;;;;;10360812;28;20026;-78
2023/10/17 08:26:40;;;;;;;4.57;1.92;;;;;;;;;;10363536;28;20021;-82
2023/10/17 08:31:44;;;;;;;23.67;3.00;;;;;;;;;;10362030;28;20083;-86
2023/10/17 08:36:47;;;;;;;6.05;2.15;;;;;;;;;;10360206;28;20275;-78
2023/10/17 08:41:50;;;;;;;7.43;1.98;;;;;;;;;;10360996;28;20412;-82
2023/10/17 08:46:57;;;;;;;7.03;2.13;;;;;;;;;;10361927;28;20388;-78
2023/10/17 08:51:58;;;;;;;6.05;3.00;;;;;;;;;;10359665;28;20022;-77
2023/10/17 08:57:02;;;;;;;6.00;2.60;;;;;;;;;;10360524;28;20026;-82
2023/10/17 09:02:03;;;;;;;4.57;2.53;;;;;;;;;;10352792;28;20026;-85
2023/10/17 09:07:31;;;;;;;4.80;2.35;;;;;;;;;;10368630;28;20025;-85
2023/10/17 09:12:42;;;;;;;5.38;2.35;;;;;;;;;;10367862;28;20152;-78
2023/10/17 09:17:58;;;;;;;7.20;2.75;;;;;;;;;;10368644;28;20108;-82
2023/10/17 09:22:58;;;;;;;5.80;2.30;;;;;;;;;;10367978;28;20021;-76
2023/10/17 09:27:59;;;;;;;3.87;2.33;;;;;;;;;;10368193;28;20026;-83
2023/10/17 09:32:59;;;;;;;7.82;2.08;;;;;;;;;;10366514;28;20309;-77
2023/10/17 09:38:02;;;;;;;5.50;2.77;;;;;;;;;;10366863;28;20025;-82
2023/10/17 09:43:05;;;;;;;5.07;3.25;;;;;;;;;;10365911;28;20037;-82
2023/10/17 09:48:09;;;;;;;5.93;2.95;;;;;;;;;;10366317;28;20030;-81
2023/10/17 09:53:22;;;;;;;2.63;2.35;;;;;;;;;;10365877;28;20033;-81
2023/10/17 09:58:27;;;;;;;8.68;2.58;;;;;;;;;;10364735;28;20044;-77
2023/10/17 10:03:28;;;;;;;4.68;2.50;;;;;;;;;;10372867;28;20113;-77
2023/10/17 10:08:33;;;;;;;9.02;3.40;;;;;;;;;;10368210;28;20181;-78
2023/10/17 10:13:54;;;;;;;6.78;2.72;;;;;;;;;;10366267;28;20018;-78
2023/10/17 10:18:54;;;;;;;8.27;2.53;;;;;;;;;;10368707;28;20546;-80
2023/10/17 10:23:55;;;;;;;7.90;3.00;;;;;;;;;;10383069;28;20026;-81
2023/10/17 10:29:16;;;;;;;3.60;2.63;;;;;;;;;;10367012;28;20022;-86
2023/10/17 10:34:16;;;;;;;7.35;2.58;;;;;;;;;;10363841;28;20084;-78
2023/10/17 10:39:18;;;;;;;7.27;3.07;;;;;;;;;;10363611;28;20111;-84
2023/10/17 10:44:18;;;;;;;4.78;2.72;;;;;;;;;;10364952;28;20096;-78
2023/10/17 10:49:28;;;;;;;7.23;2.30;;;;;;;;;;10364172;28;20080;-81
2023/10/17 10:54:47;;;;;;;4.35;2.60;;;;;;;;;;10366143;28;20128;-85
2023/10/17 10:59:52;;;;;;;8.20;2.80;;;;;;;;;;10362614;28;20030;-78
2023/10/17 11:04:56;;;;;;;6.80;2.78;;;;;;;;;;10306586;28;20061;-77
2023/10/17 11:10:03;;;;;;;4.35;2.63;;;;;;;;;;10375797;28;20488;-79
2023/10/17 11:15:16;;;;;;;3.70;2.33;;;;;;;;;;10362495;28;20032;-84
2023/10/17 11:20:17;;;;;;;7.18;2.50;;;;;;;;;;10362963;28;20164;-80
2023/10/17 11:25:26;;;;;;;7.72;2.58;;;;;;;;;;10362099;28;20095;-78
2023/10/17 11:30:33;;;;;;;8.88;2.55;;;;;;;;;;10363172;28;20404;-78
2023/10/17 11:35:35;;;;;;;5.63;2.97;;;;;;;;;;10363791;28;20539;-85
2023/10/17 11:40:46;;;;;;;6.38;2.85;;;;;;;;;;10362516;28;20034;-75
2023/10/17 11:45:47;;;;;;;3.70;2.25;;;;;;;;;;10362487;28;20041;-81
2023/10/17 11:50:50;;;;;;;6.93;3.20;;;;;;;;;;10362160;28;20385;-80
2023/10/17 11:55:51;;;;;;;2.95;2.65;;;;;;;;;;10360892;28;20428;-77
2023/10/17 12:00:51;;;;;;;5.47;3.03;;;;;;;;;;10361326;28;20022;-79
2023/10/17 12:05:54;;;;;;;12.20;3.90;;;;;;;;;;10345092;28;20038;-81
2023/10/17 12:10:55;;;;;;;7.50;3.03;;;;;;;;;;10361349;28;20017;-81
2023/10/17 12:15:56;;;;;;;6.53;2.70;;;;;;;;;;10361447;28;20037;-76
2023/10/17 12:21:01;;;;;;;4.38;2.60;;;;;;;;;;10360823;28;20025;-79
2023/10/17 12:26:01;;;;;;;7.00;2.58;;;;;;;;;;10362181;28;20113;-82
2023/10/17 12:31:02;;;;;;;6.25;2.75;;;;;;;;;;10362802;28;20034;-81
2023/10/17 12:36:05;;;;;;;7.43;2.92;;;;;;;;;;10375504;28;20465;-77
2023/10/17 12:41:06;;;;;;;5.03;2.83;;;;;;;;;;10371813;28;20574;-77
2023/10/17 12:46:07;;;;;;;4.93;2.55;;;;;;;;;;10371830;28;20474;-81
2023/10/17 12:51:11;;;;;;;6.93;2.65;;;;;;;;;;10368712;28;20087;-79
2023/10/17 12:56:11;;;;;;;3.30;2.33;;;;;;;;;;10368547;28;20034;-75
2023/10/17 13:01:12;;;;;;;7.13;2.63;;;;;;;;;;10368369;28;20025;-84
2023/10/17 13:06:13;;;;;;;5.13;2.40;;;;;;;;;;10368430;28;20061;-82
2023/10/17 13:11:14;;;;;;;6.93;2.50;;;;;;;;;;10360299;28;20049;-82
2023/10/17 13:16:14;;;;;;;5.27;2.20;;;;;;;;;;10355558;28;20033;-82
2023/10/17 13:21:14;;;;;;;4.03;2.95;;;;;;;;;;10358083;28;20014;-75
2023/10/17 13:26:15;;;;;;;4.80;2.67;;;;;;;;;;10358917;28;20085;-84
2023/10/17 13:31:16;;;;;;;5.32;3.13;;;;;;;;;;10356868;28;20028;-76
2023/10/17 13:36:16;;;;;;;4.78;2.92;;;;;;;;;;10349130;28;20085;-82
2023/10/17 13:41:16;;;;;;;6.57;3.33;;;;;;;;;;10355775;28;20108;-79
2023/10/17 13:46:17;;;;;;;5.05;3.42;;;;;;;;;;10353991;28;20037;-74
2023/10/17 13:51:18;;;;;;;4.65;3.17;;;;;;;;;;10342110;28;20113;-74
2023/10/17 13:56:20;;;;;;;10.13;3.10;;;;;;;;;;10357483;28;20031;-82
2023/10/17 14:01:27;;;;;;;5.82;2.80;;;;;;;;;;10355025;28;20026;-79
2023/10/17 14:06:39;;;;;;;4.70;3.47;;;;;;;;;;10349278;28;20026;-75
2023/10/17 14:11:41;;;;;;;8.63;3.35;;;;;;;;;;10353544;28;20083;-74
2023/10/17 14:16:42;;;;;;;6.95;2.67;;;;;;;;;;10360827;28;20451;-79
2023/10/17 14:21:47;;;;;;;5.25;3.30;;;;;;;;;;10357726;28;20351;-82
2023/10/17 14:26:48;;;;;;;8.57;3.20;;;;;;;;;;10345309;28;20038;-75
2023/10/17 14:31:50;;;;;;;6.65;3.72;;;;;;;;;;10347237;28;20204;-76
2023/10/17 14:36:50;;;;;;;6.30;3.88;;;;;;;;;;10354941;28;20520;-84
2023/10/17 14:41:51;;;;;;;4.57;2.50;;;;;;;;;;10352648;28;20038;-79
2023/10/17 14:46:52;;;;;;;6.93;4.03;;;;;;;;;;10353275;28;20083;-77
2023/10/17 14:51:53;;;;;;;6.47;3.97;;;;;;;;;;10358735;28;20035;-78
2023/10/17 14:56:53;;;;;;;8.65;4.38;;;;;;;;;;10352278;28;20037;-75
2023/10/17 15:01:53;;;;;;;6.20;3.45;;;;;;;;;;10349653;28;20485;-78
2023/10/17 15:06:54;;;;;;;5.82;4.00;;;;;;;;;;10340303;28;20412;-73
2023/10/17 15:11:54;;;;;;;7.50;3.90;;;;;;;;;;10348504;28;20018;-76
2023/10/17 15:16:58;;;;;;;6.67;4.43;;;;;;;;;;10355705;28;20026;-81
2023/10/17 15:21:58;;;;;;;5.47;3.78;;;;;;;;;;10351007;28;20029;-75
2023/10/17 15:27:01;;;;;;;7.82;4.20;;;;;;;;;;10353795;28;20077;-76
2023/10/17 15:32:01;;;;;;;6.43;3.58;;;;;;;;;;10353394;28;20118;-80
2023/10/17 15:37:01;;;;;;;4.88;3.97;;;;;;;;;;10352651;28;20054;-78
2023/10/17 15:42:03;;;;;;;6.80;3.92;;;;;;;;;;10358578;28;20074;-77
2023/10/17 15:47:04;;;;;;;4.18;3.35;;;;;;;;;;10353423;28;20105;-75
2023/10/17 15:52:05;;;;;;;12.20;4.47;;;;;;;;;;10352634;28;20044;-73
2023/10/17 15:57:05;;;;;;;9.33;4.27;;;;;;;;;;10353065;28;20091;-76
2023/10/17 16:02:08;;;;;;;16.35;4.93;;;;;;;;;;10355512;28;20284;-81
2023/10/17 16:07:11;;;;;;;8.25;4.68;;;;;;;;;;10351696;28;20030;-79
2023/10/17 16:12:11;;;;;;;10.52;4.10;;;;;;;;;;10350615;28;20480;-75
2023/10/17 16:17:13;;;;;;;9.13;5.35;;;;;;;;;;10352348;28;20030;-81
2023/10/17 16:22:14;;;;;;;10.13;5.20;;;;;;;;;;10349120;28;20534;-77
2023/10/17 16:27:15;;;;;;;6.90;4.07;;;;;;;;;;10340115;28;20463;-76
2023/10/17 16:32:15;;;;;;;5.70;3.42;;;;;;;;;;10350568;28;20509;-74
2023/10/17 16:37:15;;;;;;;10.07;3.75;;;;;;;;;;10346136;28;20030;-74
2023/10/17 16:42:17;;;;;;;8.15;3.95;;;;;;;;;;10346691;28;20030;-79
2023/10/17 16:47:19;;;;;;;5.22;3.67;;;;;;;;;;10345558;28;20075;-76
2023/10/17 16:52:20;;;;;;;5.47;3.25;;;;;;;;;;10349064;28;20015;-78
2023/10/17 16:57:20;;;;;;;9.55;3.85;;;;;;;;;;10351830;28;20026;-75
2023/10/17 17:02:24;;;;;;;11.02;4.10;;;;;;;;;;10350309;28;20030;-75
2023/10/17 17:07:25;;;;;;;7.45;3.33;;;;;;;;;;10351893;28;20029;-78
2023/10/17 17:12:25;;;;;;;5.68;3.53;;;;;;;;;;10346606;28;20507;-73
2023/10/17 17:17:27;;;;;;;8.32;3.70;;;;;;;;;;10347027;28;20075;-76
2023/10/17 17:22:27;;;;;;;8.43;3.90;;;;;;;;;;10336611;28;20510;-75
2023/10/17 17:27:31;;;;;;;11.98;5.72;;;;;;;;;;10355133;28;20026;-73
2023/10/17 17:32:31;;;;;;;12.38;6.75;;;;;;;;;;10344897;28;20057;-74
2023/10/17 17:37:33;;;;;;;11.95;5.00;;;;;;;;;;10359696;28;20040;-81
2023/10/17 17:42:33;;;;;;;8.63;5.43;;;;;;;;;;10359480;28;20029;-82
2023/10/17 17:47:34;;;;;;;9.38;5.38;;;;;;;;;;10355210;28;20492;-72
2023/10/17 17:52:34;;;;;;;7.47;4.90;;;;;;;;;;10362507;28;20025;-80
2023/10/17 17:57:38;;;;;;;8.25;4.93;;;;;;;;;;10354350;28;20397;-74
2023/10/17 18:02:38;;;;;;;10.77;5.20;;;;;;;;;;10356167;28;20021;-79
2023/10/17 18:07:39;;;;;;;9.57;5.47;;;;;;;;;;10355937;28;20397;-75
2023/10/17 18:12:39;;;;;;;11.60;6.30;;;;;;;;;;10355216;28;20040;-73
2023/10/17 18:17:39;;;;;;;16.98;7.90;;;;;;;;;;10348019;28;20021;-74
2023/10/17 18:22:40;;;;;;;13.57;7.93;;;;;;;;;;10356124;28;20086;-73
2023/10/17 18:27:40;;;;;;;17.98;9.25;;;;;;;;;;10349605;28;20036;-75
2023/10/17 18:32:41;;;;;;;14.53;8.67;;;;;;;;;;10353595;28;20177;-74
2023/10/17 18:37:42;;;;;;;22.50;10.13;;;;;;;;;;10349397;28;20704;-74
2023/10/17 18:42:42;;;;;;;13.27;7.22;;;;;;;;;;10347659;28;20037;-77
2023/10/17 18:47:42;;;;;;;18.75;7.72;;;;;;;;;;10354887;28;20050;-74
2023/10/17 18:52:43;;;;;;;13.38;7.05;;;;;;;;;;10353533;28;20014;-73
2023/10/17 18:57:44;;;;;;;14.00;7.15;;;;;;;;;;10351878;28;20034;-77
2023/10/17 19:02:45;;;;;;;17.45;9.02;;;;;;;;;;10345593;28;20026;-74
2023/10/17 19:07:49;;;;;;;11.18;7.28;;;;;;;;;;10359165;28;20578;-74
2023/10/17 19:12:49;;;;;;;14.90;9.00;;;;;;;;;;10350143;28;20064;-75
2023/10/17 19:17:50;;;;;;;23.75;16.15;;;;;;;;;;10348953;28;20133;-76
2023/10/17 19:22:50;;;;;;;16.40;7.95;;;;;;;;;;10372671;28;20029;-74
2023/10/17 19:27:52;;;;;;;12.68;7.43;;;;;;;;;;10353208;28;20112;-77
2023/10/17 19:32:52;;;;;;;26.42;8.07;;;;;;;;;;10350940;28;20424;-74
2023/10/17 19:37:53;;;;;;;16.17;8.00;;;;;;;;;;10352266;28;20100;-76
2023/10/17 19:42:54;;;;;;;11.95;6.65;;;;;;;;;;10350446;28;20091;-78
2023/10/17 19:47:56;;;;;;;14.38;6.65;;;;;;;;;;10352169;28;20507;-76
2023/10/17 19:52:56;;;;;;;15.70;6.10;;;;;;;;;;10351559;28;20048;-78
2023/10/17 19:57:56;;;;;;;15.50;7.28;;;;;;;;;;10351510;28;20048;-78
2023/10/17 20:02:56;;;;;;;15.10;7.53;;;;;;;;;;10353288;28;20524;-76
2023/10/17 20:07:57;;;;;;;10.40;6.70;;;;;;;;;;10352641;28;20033;-78
2023/10/17 20:12:57;;;;;;;18.02;8.02;;;;;;;;;;10344652;28;20076;-75
2023/10/17 20:17:57;;;;;;;12.20;7.10;;;;;;;;;;10347294;28;20037;-80
2023/10/17 20:22:58;;;;;;;27.08;8.48;;;;;;;;;;10356164;28;20467;-74
2023/10/17 20:28:00;;;;;;;14.00;8.93;;;;;;;;;;10356193;28;20413;-81
2023/10/17 20:33:00;;;;;;;12.52;7.28;;;;;;;;;;10354032;28;20042;-75
2023/10/17 20:38:01;;;;;;;12.95;8.48;;;;;;;;;;10345220;28;20034;-72
2023/10/17 20:43:01;;;;;;;10.95;7.40;;;;;;;;;;10349008;28;20034;-81
2023/10/17 20:48:03;;;;;;;15.53;9.17;;;;;;;;;;10352101;28;20539;-79
2023/10/17 20:53:04;;;;;;;13.88;8.80;;;;;;;;;;10348006;28;20022;-75
2023/10/17 20:58:04;;;;;;;15.85;8.85;;;;;;;;;;10361230;28;20026;-72
2023/10/17 21:03:05;;;;;;;14.15;8.35;;;;;;;;;;10364418;28;20033;-74
2023/10/17 21:08:05;;;;;;;17.00;9.40;;;;;;;;;;10361157;28;20018;-79
2023/10/17 21:13:05;;;;;;;13.50;8.05;;;;;;;;;;10365450;28;20403;-74
2023/10/17 21:18:11;;;;;;;14.02;8.15;;;;;;;;;;10366393;28;20029;-81
2023/10/17 21:23:15;;;;;;;12.73;8.45;;;;;;;;;;10368751;28;20113;-77
2023/10/17 21:28:15;;;;;;;12.05;7.80;;;;;;;;;;10364442;28;20035;-78
2023/10/17 21:33:15;;;;;;;20.80;9.20;;;;;;;;;;10364682;28;20063;-78
2023/10/17 21:38:16;;;;;;;11.05;6.97;;;;;;;;;;10361703;28;20213;-82
2023/10/17 21:43:16;;;;;;;19.40;8.07;;;;;;;;;;10364765;28;20041;-79
2023/10/17 21:48:16;;;;;;;13.70;8.10;;;;;;;;;;10365005;28;20030;-77
2023/10/17 21:53:17;;;;;;;11.07;7.05;;;;;;;;;;10364930;28;20028;-77
2023/10/17 21:58:17;;;;;;;12.95;7.68;;;;;;;;;;10365157;28;20018;-79
2023/10/17 22:03:20;;;;;;;16.70;8.35;;;;;;;;;;10365024;28;20022;-80
2023/10/17 22:08:22;;;;;;;14.55;7.65;;;;;;;;;;10362658;28;20032;-77
2023/10/17 22:13:23;;;;;;;15.40;7.65;;;;;;;;;;10364340;28;20014;-77
2023/10/17 22:18:23;;;;;;;12.80;7.60;;;;;;;;;;10365473;28;20562;-75
2023/10/17 22:23:24;;;;;;;15.25;8.23;;;;;;;;;;10363677;28;20023;-82
2023/10/17 22:28:25;;;;;;;16.30;10.13;;;;;;;;;;10353480;28;20025;-77
2023/10/17 22:33:25;;;;;;;24.58;10.50;;;;;;;;;;10363865;28;20103;-79
2023/10/17 22:38:27;;;;;;;13.17;8.00;;;;;;;;;;10363993;28;20390;-77
2023/10/17 22:43:28;;;;;;;17.50;9.82;;;;;;;;;;10364011;28;20109;-76
2023/10/17 22:48:28;;;;;;;21.40;10.23;;;;;;;;;;10362624;28;20029;-75
2023/10/17 22:53:30;;;;;;;17.77;10.20;;;;;;;;;;10362392;28;20021;-73
2023/10/17 22:58:31;;;;;;;16.98;9.52;;;;;;;;;;10362713;28;20508;-74
2023/10/17 23:03:31;;;;;;;16.60;8.88;;;;;;;;;;10361762;28;20026;-80
2023/10/17 23:08:33;;;;;;;17.55;8.95;;;;;;;;;;10378151;28;20772;-78
2023/10/17 23:13:33;;;;;;;14.95;9.23;;;;;;;;;;10363274;28;20476;-78
2023/10/17 23:18:37;;;;;;;17.07;8.93;;;;;;;;;;10361799;28;20022;-79
2023/10/17 23:23:38;;;;;;;14.75;8.85;;;;;;;;;;10362338;28;20025;-75
2023/10/17 23:28:39;;;;;;;12.38;8.50;;;;;;;;;;10361306;28;20418;-78
2023/10/17 23:33:39;;;;;;;11.60;6.53;;;;;;;;;;10346004;28;20494;-79
2023/10/17 23:38:40;;;;;;;15.88;8.88;;;;;;;;;;10363402;28;20065;-77
2023/10/17 23:43:40;;;;;;;13.13;7.90;;;;;;;;;;10362628;28;20022;-75
2023/10/17 23:48:41;;;;;;;12.38;8.05;;;;;;;;;;10361697;28;20455;-80
2023/10/17 23:53:42;;;;;;;14.40;7.60;;;;;;;;;;10361120;28;20025;-79
2023/10/17 23:58:42;;;;;;;13.85;7.43;;;;;;;;;;10360433;28;20472;-78
